Time;durP1;ratioP1;P1;durP2;ratioP2;P2;SDS_P1;SDS_P2;PMS_P1;PMS_P2;Temp;Humidity;BMP_temperature;BMP_pressure;BME280_temperature;BME280_humidity;BME280_pressure;Samples;Min_cycle;Max_cycle;Signal;HPM_P1;HPM_P2
2022/06/29 00:01:00;;;;;;;2.92;2.72;;;;;;;;;;6277848;22;20222;-92
2022/06/29 00:03:33;;;;;;;3.17;2.88;;;;;;;;;;6276516;22;20222;-92
2022/06/29 00:06:00;;;;;;;3.20;2.90;;;;;;;;;;6276129;22;20172;-92
2022/06/29 00:08:30;;;;;;;3.20;2.90;;;;;;;;;;6275720;22;20196;-92
2022/06/29 00:10:57;;;;;;;2.80;2.60;;;;;;;;;;6277181;22;20195;-92
2022/06/29 00:13:24;;;;;;;2.92;2.72;;;;;;;;;;6276759;22;20171;-93
2022/06/29 00:15:55;;;;;;;2.80;2.60;;;;;;;;;;6276614;22;20210;-92
2022/06/29 00:18:22;;;;;;;2.78;2.58;;;;;;;;;;6276337;22;20202;-92
2022/06/29 00:20:52;;;;;;;3.03;2.83;;;;;;;;;;6276316;22;20238;-92
2022/06/29 00:23:21;;;;;;;2.80;2.60;;;;;;;;;;6276682;22;20168;-93
2022/06/29 00:25:49;;;;;;;2.78;2.58;;;;;;;;;;6276736;22;20171;-93
2022/06/29 00:28:16;;;;;;;2.80;2.60;;;;;;;;;;6276371;22;20246;-93
2022/06/29 00:30:43;;;;;;;3.50;2.60;;;;;;;;;;6276269;22;20237;-92
2022/06/29 00:33:11;;;;;;;2.95;2.75;;;;;;;;;;6275693;22;20172;-92
2022/06/29 00:35:38;;;;;;;2.92;2.72;;;;;;;;;;6275949;22;20172;-91
2022/06/29 00:38:09;;;;;;;2.78;2.60;;;;;;;;;;6275598;22;20257;-92
2022/06/29 00:40:36;;;;;;;3.08;2.78;;;;;;;;;;6276229;22;20160;-92
2022/06/29 00:43:04;;;;;;;2.53;2.40;;;;;;;;;;6275601;22;20172;-92
2022/06/29 00:45:31;;;;;;;3.25;2.70;;;;;;;;;;6275197;22;20172;-91
2022/06/29 00:47:58;;;;;;;3.03;2.83;;;;;;;;;;6275382;22;20179;-92
2022/06/29 00:50:26;;;;;;;2.58;2.40;;;;;;;;;;6275295;22;20210;-91
2022/06/29 00:52:54;;;;;;;2.85;2.65;;;;;;;;;;6275423;22;20172;-92
2022/06/29 00:55:24;;;;;;;3.47;2.78;;;;;;;;;;6275835;22;20179;-91
2022/06/29 00:57:52;;;;;;;2.83;2.63;;;;;;;;;;6275457;22;20218;-92
2022/06/29 01:00:19;;;;;;;2.80;2.60;;;;;;;;;;6275218;22;20198;-92
2022/06/29 01:02:48;;;;;;;2.70;2.50;;;;;;;;;;6277605;22;20172;-91
2022/06/29 01:05:15;;;;;;;2.55;2.35;;;;;;;;;;6279618;22;20194;-92
2022/06/29 01:07:42;;;;;;;3.00;2.80;;;;;;;;;;6280762;22;20202;-91
2022/06/29 01:10:10;;;;;;;2.92;2.65;;;;;;;;;;6280005;22;20187;-93
2022/06/29 01:12:39;;;;;;;2.60;2.42;;;;;;;;;;6281562;22;20176;-92
2022/06/29 01:15:07;;;;;;;2.33;2.22;;;;;;;;;;6280648;22;20172;-93
2022/06/29 01:17:36;;;;;;;3.05;2.85;;;;;;;;;;6280035;22;20234;-92
2022/06/29 01:20:04;;;;;;;2.85;2.65;;;;;;;;;;6280622;22;20214;-92
2022/06/29 01:22:33;;;;;;;3.03;2.83;;;;;;;;;;6281066;22;20172;-93
2022/06/29 01:25:00;;;;;;;2.85;2.65;;;;;;;;;;6279272;22;20175;-92
2022/06/29 01:27:37;;;;;;;2.90;2.70;;;;;;;;;;6277755;22;20172;-91
2022/06/29 01:30:06;;;;;;;2.92;2.72;;;;;;;;;;6277068;22;20187;-91
2022/06/29 01:32:33;;;;;;;4.20;2.92;;;;;;;;;;6277335;22;20183;-91
2022/06/29 01:35:00;;;;;;;2.83;2.63;;;;;;;;;;6277702;22;20175;-92
2022/06/29 01:37:28;;;;;;;3.20;2.90;;;;;;;;;;6278300;22;20206;-92
2022/06/29 01:39:56;;;;;;;3.03;2.72;;;;;;;;;;6277651;22;20188;-92
2022/06/29 01:42:24;;;;;;;3.03;2.83;;;;;;;;;;6277854;22;20223;-92
2022/06/29 01:44:51;;;;;;;2.80;2.60;;;;;;;;;;6278128;22;20230;-92
2022/06/29 01:47:18;;;;;;;2.97;2.78;;;;;;;;;;6277767;22;20191;-92
2022/06/29 01:49:46;;;;;;;3.17;2.97;;;;;;;;;;6278043;22;20202;-91
2022/06/29 01:52:14;;;;;;;2.50;2.30;;;;;;;;;;6278498;22;20636;-92
2022/06/29 01:54:41;;;;;;;2.40;2.30;;;;;;;;;;6280459;22;20207;-92
2022/06/29 01:57:10;;;;;;;2.95;2.75;;;;;;;;;;6279754;22;20172;-92
2022/06/29 01:59:37;;;;;;;2.80;2.60;;;;;;;;;;6279047;22;20192;-92
2022/06/29 02:02:04;;;;;;;2.78;2.58;;;;;;;;;;6278599;22;20171;-92
2022/06/29 02:04:32;;;;;;;2.80;2.60;;;;;;;;;;6277672;22;20230;-92
2022/06/29 02:06:59;;;;;;;4.43;2.63;;;;;;;;;;6277114;22;20167;-91
2022/06/29 02:09:26;;;;;;;2.90;2.70;;;;;;;;;;6276805;22;20192;-91
2022/06/29 02:11:54;;;;;;;2.75;2.55;;;;;;;;;;6277347;22;20221;-92
2022/06/29 02:14:22;;;;;;;3.50;3.20;;;;;;;;;;6277488;22;20179;-91
2022/06/29 02:16:50;;;;;;;2.90;2.70;;;;;;;;;;6276540;22;20192;-91
2022/06/29 02:19:17;;;;;;;2.72;2.63;;;;;;;;;;6276709;22;20192;-92
2022/06/29 02:21:44;;;;;;;3.17;2.70;;;;;;;;;;6276814;22;20171;-91
2022/06/29 02:24:12;;;;;;;2.70;2.50;;;;;;;;;;6276601;22;20172;-92
2022/06/29 02:26:39;;;;;;;3.05;2.85;;;;;;;;;;6276478;22;20172;-92
2022/06/29 02:29:06;;;;;;;3.00;2.80;;;;;;;;;;6276873;22;20192;-92
2022/06/29 02:37:04;;;;;;;2.72;2.22;;;;;;;;;;6276907;22;20155;-92
2022/06/29 02:39:32;;;;;;;2.90;2.70;;;;;;;;;;6277472;22;20215;-92
2022/06/29 02:41:59;;;;;;;3.10;2.90;;;;;;;;;;6276954;22;20228;-92
2022/06/29 02:44:26;;;;;;;2.83;2.63;;;;;;;;;;6276859;22;20227;-92
2022/06/29 02:46:55;;;;;;;3.15;2.85;;;;;;;;;;6276027;22;20172;-92
2022/06/29 02:49:22;;;;;;;2.80;2.60;;;;;;;;;;6276483;22;20192;-92
2022/06/29 02:51:50;;;;;;;2.80;2.60;;;;;;;;;;6276433;22;20195;-92
2022/06/29 02:54:17;;;;;;;2.60;2.50;;;;;;;;;;6276527;22;20241;-92
2022/06/29 02:56:44;;;;;;;2.90;2.70;;;;;;;;;;6276139;22;20174;-92
2022/06/29 02:59:12;;;;;;;3.08;2.88;;;;;;;;;;6276070;22;20249;-92
2022/06/29 03:01:39;;;;;;;2.78;2.60;;;;;;;;;;6277184;22;20168;-92
2022/06/29 03:04:08;;;;;;;2.72;2.58;;;;;;;;;;6276972;22;20176;-93
2022/06/29 03:06:35;;;;;;;2.70;2.50;;;;;;;;;;6276393;22;20172;-92
2022/06/29 03:09:02;;;;;;;2.90;2.70;;;;;;;;;;6276515;22;20199;-91
2022/06/29 03:11:29;;;;;;;2.72;2.53;;;;;;;;;;6276442;22;20187;-92
2022/06/29 03:13:57;;;;;;;2.80;2.60;;;;;;;;;;6275825;22;20220;-91
2022/06/29 03:16:25;;;;;;;3.15;2.85;;;;;;;;;;6276859;22;20174;-92
2022/06/29 03:18:52;;;;;;;2.97;2.78;;;;;;;;;;6276541;22;20191;-92
2022/06/29 03:21:21;;;;;;;2.60;2.50;;;;;;;;;;6276710;22;20172;-92
2022/06/29 03:23:48;;;;;;;2.92;2.72;;;;;;;;;;6276444;22;20195;-92
2022/06/29 03:26:15;;;;;;;3.17;2.90;;;;;;;;;;6275862;22;20179;-92
2022/06/29 03:28:43;;;;;;;2.80;2.63;;;;;;;;;;6275874;22;20191;-92
2022/06/29 03:31:10;;;;;;;2.78;2.58;;;;;;;;;;6276561;22;20184;-91
2022/06/29 03:33:37;;;;;;;3.03;2.70;;;;;;;;;;6276159;22;20240;-92
2022/06/29 03:36:16;;;;;;;3.00;2.80;;;;;;;;;;6275878;22;20243;-91
2022/06/29 03:38:44;;;;;;;2.80;2.60;;;;;;;;;;6274721;22;20271;-92
2022/06/29 03:41:12;;;;;;;2.88;2.67;;;;;;;;;;6275451;22;20246;-92
2022/06/29 03:43:39;;;;;;;2.90;2.70;;;;;;;;;;6275847;22;20233;-92
2022/06/29 03:46:06;;;;;;;2.63;2.50;;;;;;;;;;6276039;22;20171;-90
2022/06/29 03:48:33;;;;;;;2.50;2.40;;;;;;;;;;6276325;22;20204;-91
2022/06/29 03:51:01;;;;;;;3.00;2.80;;;;;;;;;;6275506;22;20184;-92
2022/06/29 03:53:28;;;;;;;2.70;2.50;;;;;;;;;;6277903;22;20171;-92
2022/06/29 03:55:57;;;;;;;2.85;2.65;;;;;;;;;;6275996;22;20175;-91
2022/06/29 03:58:24;;;;;;;2.92;2.70;;;;;;;;;;6276423;22;20246;-91
2022/06/29 04:00:51;;;;;;;2.97;2.75;;;;;;;;;;6275908;22;20171;-92
2022/06/29 04:03:19;;;;;;;2.90;2.70;;;;;;;;;;6275999;22;20172;-91
2022/06/29 04:05:46;;;;;;;3.65;2.88;;;;;;;;;;6275937;22;20172;-92
2022/06/29 04:08:13;;;;;;;2.60;2.40;;;;;;;;;;6276823;22;20191;-92
2022/06/29 04:10:44;;;;;;;2.83;2.63;;;;;;;;;;6275592;22;20211;-92
2022/06/29 04:13:13;;;;;;;3.00;2.80;;;;;;;;;;6275663;22;20164;-92
2022/06/29 04:15:41;;;;;;;2.90;2.70;;;;;;;;;;6276506;22;20534;-92
2022/06/29 04:18:09;;;;;;;2.90;2.70;;;;;;;;;;6275624;22;20192;-92
2022/06/29 04:23:22;;;;;;;3.13;2.92;;;;;;;;;;6275819;22;20159;-90
2022/06/29 04:25:49;;;;;;;3.10;2.90;;;;;;;;;;6276034;22;20239;-91
2022/06/29 04:28:18;;;;;;;2.85;2.65;;;;;;;;;;6280617;22;20675;-91
2022/06/29 04:30:45;;;;;;;2.92;2.72;;;;;;;;;;6278640;22;20245;-90
2022/06/29 04:33:12;;;;;;;2.58;2.47;;;;;;;;;;6274425;22;20175;-90
2022/06/29 04:35:40;;;;;;;2.85;2.65;;;;;;;;;;6276458;22;20218;-90
2022/06/29 04:38:07;;;;;;;3.20;2.97;;;;;;;;;;6277986;22;20219;-90
2022/06/29 04:40:34;;;;;;;8.68;3.55;;;;;;;;;;6279104;22;20191;-91
2022/06/29 04:43:01;;;;;;;2.70;2.50;;;;;;;;;;6282580;22;20171;-91
2022/06/29 04:48:33;;;;;;;4.85;3.10;;;;;;;;;;6277820;22;20245;-92
2022/06/29 04:54:09;;;;;;;7.30;3.33;;;;;;;;;;6276948;22;20279;-93
2022/06/29 05:00:21;;;;;;;10.05;4.32;;;;;;;;;;6142944;23;20225;-94
2022/06/29 05:05:55;;;;;;;12.80;4.88;;;;;;;;;;6277167;22;20200;-89
2022/06/29 05:08:22;;;;;;;8.95;4.40;;;;;;;;;;6277329;22;20196;-91
2022/06/29 05:10:50;;;;;;;6.57;4.30;;;;;;;;;;6277714;22;20188;-91
2022/06/29 05:13:17;;;;;;;8.80;4.88;;;;;;;;;;6278469;22;20188;-90
2022/06/29 05:18:34;;;;;;;10.98;4.63;;;;;;;;;;6281116;22;20188;-92
2022/06/29 05:21:36;;;;;;;7.30;4.30;;;;;;;;;;6304215;22;20156;-91
2022/06/29 05:41:34;;;;;;;53.88;27.77;;;;;;;;;;6296210;22;20253;-95
2022/06/29 05:56:22;;;;;;;20.27;11.60;;;;;;;;;;6034938;23;20184;-93
2022/06/29 06:02:08;;;;;;;24.25;12.93;;;;;;;;;;6153347;23;20179;-93
2022/06/29 06:11:25;;;;;;;17.40;10.18;;;;;;;;;;5927607;24;20231;-93
2022/06/29 06:26:57;;;;;;;14.02;8.35;;;;;;;;;;6079491;23;20171;-92
2022/06/29 06:29:53;;;;;;;11.93;8.48;;;;;;;;;;6153640;23;20209;-92
2022/06/29 06:32:44;;;;;;;10.95;7.97;;;;;;;;;;6153554;23;20204;-93
2022/06/29 06:35:37;;;;;;;12.32;7.80;;;;;;;;;;6154116;23;20201;-93
2022/06/29 06:38:11;;;;;;;9.52;7.55;;;;;;;;;;6154137;23;20186;-93
2022/06/29 06:50:01;;;;;;;9.15;7.03;;;;;;;;;;6244715;23;20275;-92
2022/06/29 07:02:03;;;;;;;6.97;5.55;;;;;;;;;;6243804;23;20204;-92
2022/06/29 07:07:41;;;;;;;6.43;5.72;;;;;;;;;;6244202;23;20180;-93
2022/06/29 07:10:18;;;;;;;5.72;5.22;;;;;;;;;;6245507;23;20203;-93
2022/06/29 07:18:38;;;;;;;5.93;5.32;;;;;;;;;;6242508;23;20192;-92
2022/06/29 07:24:19;;;;;;;6.57;5.45;;;;;;;;;;6242403;23;20179;-91
2022/06/29 07:27:11;;;;;;;;;;;;;;;;;;;;;
2022/06/29 11:38:15;;;;;;;9.75;6.68;;;;;;;;;;6125456;23;20187;-90
2022/06/29 11:40:53;;;;;;;5.57;5.07;;;;;;;;;;6123258;23;20194;-92
2022/06/29 11:43:21;;;;;;;5.82;5.20;;;;;;;;;;6123229;23;20191;-90
2022/06/29 11:46:01;;;;;;;7.47;5.55;;;;;;;;;;6122632;23;20167;-90
2022/06/29 13:06:16;;;;;;;;;;;;;;;;;;;;;
2022/06/29 13:12:50;;;;;;;3.90;3.60;;;;;;;;;;6077211;23;20203;-88
2022/06/29 17:28:54;;;;;;;4.18;3.88;;;;;;;;;;6185671;23;20184;-89
2022/06/29 20:16:57;;;;;;;3.90;3.60;;;;;;;;;;6238448;22;20276;-88
2022/06/29 20:20:12;;;;;;;;;;;;;;;;;;;;;
